Time;durP1;ratioP1;P1;durP2;ratioP2;P2;SDS_P1;SDS_P2;PMS_P1;PMS_P2;Temp;Humidity;BMP_temperature;BMP_pressure;BME280_temperature;BME280_humidity;BME280_pressure;Samples;Min_cycle;Max_cycle;Signal;HPM_P1;HPM_P2
2024/03/04 00:00:43;;;;;;;22.05;13.65;;;5.60;99.90;;;;;;5000401;28;20486;-67
2024/03/04 00:03:09;;;;;;;25.50;15.15;;;5.80;99.90;;;;;;5020941;28;20049;-66
2024/03/04 00:05:35;;;;;;;23.88;15.07;;;6.00;99.90;;;;;;4985211;28;20503;-66
2024/03/04 00:08:02;;;;;;;24.77;14.82;;;6.00;99.90;;;;;;5003812;28;20056;-66
2024/03/04 00:10:31;;;;;;;29.58;14.52;;;6.00;99.90;;;;;;5001354;28;20048;-67
2024/03/04 00:12:57;;;;;;;23.48;14.45;;;5.90;99.90;;;;;;5020939;28;20129;-66
2024/03/04 00:15:23;;;;;;;22.90;13.90;;;5.90;99.90;;;;;;5020388;28;20064;-66
2024/03/04 00:17:52;;;;;;;21.33;14.40;;;5.90;99.90;;;;;;5017161;28;20040;-66
2024/03/04 00:20:18;;;;;;;28.48;15.43;;;6.00;99.90;;;;;;5024258;28;20049;-67
2024/03/04 00:22:47;;;;;;;24.35;15.02;;;6.00;99.90;;;;;;5023386;28;20052;-67
2024/03/04 00:25:16;;;;;;;27.30;16.38;;;5.90;99.90;;;;;;5025452;28;20094;-66
2024/03/04 00:27:48;;;;;;;28.27;16.38;;;5.90;99.90;;;;;;5006326;28;20049;-67
2024/03/04 00:30:14;;;;;;;30.00;17.00;;;6.00;99.90;;;;;;5007608;28;20122;-66
2024/03/04 00:32:40;;;;;;;33.05;17.42;;;6.00;99.90;;;;;;5005966;28;20042;-66
2024/03/04 00:35:06;;;;;;;32.28;17.63;;;5.90;99.90;;;;;;5023242;28;20046;-66
2024/03/04 00:37:32;;;;;;;32.88;17.52;;;6.00;99.90;;;;;;5025166;28;20514;-67
2024/03/04 00:39:58;;;;;;;25.15;15.15;;;6.00;99.90;;;;;;5022569;28;20484;-67
2024/03/04 00:42:25;;;;;;;29.55;16.55;;;6.00;99.90;;;;;;5025012;28;20038;-67
2024/03/04 00:44:52;;;;;;;29.38;16.42;;;5.90;99.90;;;;;;5020647;28;20140;-66
2024/03/04 00:47:17;;;;;;;30.02;16.63;;;5.80;99.90;;;;;;5025128;28;20060;-67
2024/03/04 00:49:46;;;;;;;29.27;16.75;;;5.70;99.90;;;;;;5006040;28;20053;-67
2024/03/04 00:52:13;;;;;;;31.70;17.70;;;5.60;99.90;;;;;;5024041;28;20967;-67
2024/03/04 00:54:40;;;;;;;34.88;19.95;;;5.60;99.90;;;;;;5004597;28;20053;-67
2024/03/04 00:57:07;;;;;;;39.50;21.00;;;5.50;99.90;;;;;;5003058;28;20056;-67
2024/03/04 00:59:33;;;;;;;47.33;22.45;;;5.60;99.90;;;;;;5020205;28;20129;-67
2024/03/04 01:01:59;;;;;;;37.00;20.42;;;5.80;99.90;;;;;;5018957;28;20423;-67
2024/03/04 01:04:25;;;;;;;43.92;21.40;;;5.80;99.90;;;;;;4991250;28;20053;-67
2024/03/04 01:06:52;;;;;;;44.90;22.42;;;5.80;99.90;;;;;;5004628;28;20064;-66
2024/03/04 01:09:21;;;;;;;47.30;23.08;;;5.90;99.90;;;;;;5024147;28;20037;-67
2024/03/04 01:11:47;;;;;;;53.58;23.27;;;5.80;99.90;;;;;;4996309;28;20180;-66
2024/03/04 01:14:19;;;;;;;47.15;22.23;;;5.90;99.90;;;;;;5004705;28;20504;-67
2024/03/04 01:16:49;;;;;;;43.92;21.80;;;5.90;99.90;;;;;;5006658;28;20052;-67
2024/03/04 01:19:16;;;;;;;42.78;21.80;;;6.00;99.90;;;;;;5022220;28;20145;-66
2024/03/04 01:21:42;;;;;;;53.97;23.98;;;5.80;99.90;;;;;;5022911;28;20528;-67
2024/03/04 01:24:09;;;;;;;37.08;21.73;;;5.80;99.90;;;;;;5005207;28;20053;-67
2024/03/04 01:26:36;;;;;;;40.15;22.50;;;5.80;99.90;;;;;;5020695;28;20044;-66
2024/03/04 01:29:03;;;;;;;45.15;24.58;;;5.90;99.90;;;;;;4990280;28;20056;-67
2024/03/04 01:31:29;;;;;;;48.90;24.80;;;5.80;99.90;;;;;;5002392;28;20045;-67
2024/03/04 01:33:55;;;;;;;51.67;26.35;;;5.70;99.90;;;;;;5006660;28;20201;-67
2024/03/04 01:36:21;;;;;;;52.45;25.65;;;5.60;99.90;;;;;;4996260;28;20079;-67
2024/03/04 01:38:47;;;;;;;44.75;23.17;;;5.80;99.90;;;;;;5006811;28;20065;-66
2024/03/04 01:41:13;;;;;;;55.00;25.67;;;5.70;99.90;;;;;;5019994;28;20042;-67
2024/03/04 01:43:38;;;;;;;56.53;26.60;;;5.70;99.90;;;;;;5023817;28;20124;-67
2024/03/04 01:46:04;;;;;;;46.58;25.20;;;5.70;99.90;;;;;;5005070;28;20042;-66
2024/03/04 01:48:30;;;;;;;48.85;25.83;;;5.70;99.90;;;;;;5022336;28;20057;-67
2024/03/04 01:50:57;;;;;;;54.83;24.75;;;5.70;99.90;;;;;;5003156;28;20060;-67
2024/03/04 01:53:23;;;;;;;47.40;24.92;;;5.60;99.90;;;;;;5001309;28;20530;-67
2024/03/04 01:55:54;;;;;;;52.85;27.30;;;5.60;99.90;;;;;;5006373;28;20056;-67
2024/03/04 01:58:21;;;;;;;55.97;24.63;;;5.50;99.90;;;;;;5021586;28;20060;-67
2024/03/04 02:00:51;;;;;;;53.83;25.45;;;5.70;99.90;;;;;;5005019;28;20052;-67
2024/03/04 02:03:18;;;;;;;53.05;25.00;;;5.70;99.90;;;;;;5003731;28;20061;-67
2024/03/04 02:05:47;;;;;;;49.65;23.52;;;5.70;99.90;;;;;;5021665;28;20045;-67
2024/03/04 02:08:14;;;;;;;79.35;24.05;;;5.70;99.90;;;;;;5005778;28;20412;-67
2024/03/04 02:10:40;;;;;;;145.50;22.05;;;5.50;99.90;;;;;;5021253;28;20095;-66
2024/03/04 02:13:07;;;;;;;55.28;24.15;;;5.60;99.90;;;;;;5017749;28;20044;-67
2024/03/04 02:15:36;;;;;;;58.97;23.52;;;5.60;99.90;;;;;;5021551;28;20033;-67
2024/03/04 02:18:05;;;;;;;45.30;22.55;;;5.50;99.90;;;;;;5004764;28;20057;-67
2024/03/04 02:20:42;;;;;;;51.88;25.80;;;5.50;99.90;;;;;;5022399;28;20478;-67
2024/03/04 02:23:09;;;;;;;49.22;23.92;;;5.40;99.90;;;;;;5004561;28;20117;-67
2024/03/04 02:25:35;;;;;;;49.65;25.00;;;5.40;99.90;;;;;;5005164;28;20056;-66
2024/03/04 02:28:02;;;;;;;61.10;25.35;;;5.30;99.90;;;;;;5002709;28;20041;-67
2024/03/04 02:30:31;;;;;;;50.47;24.17;;;5.40;99.90;;;;;;5005294;28;20053;-67
2024/03/04 02:32:58;;;;;;;56.38;25.25;;;5.30;99.90;;;;;;5004066;28;20049;-67
2024/03/04 02:35:27;;;;;;;52.88;23.55;;;5.30;99.90;;;;;;5004653;28;20373;-67
2024/03/04 02:37:54;;;;;;;49.95;24.50;;;5.40;99.90;;;;;;5022979;28;20041;-66
2024/03/04 02:40:19;;;;;;;83.13;23.02;;;5.30;99.90;;;;;;5020158;28;20594;-67
2024/03/04 02:42:45;;;;;;;40.17;21.38;;;5.40;99.90;;;;;;5023122;28;20566;-67
2024/03/04 02:45:11;;;;;;;44.03;23.13;;;5.40;99.90;;;;;;4985549;28;20500;-67
2024/03/04 02:47:37;;;;;;;50.55;23.33;;;5.20;99.90;;;;;;5018341;28;20477;-67
2024/03/04 02:50:03;;;;;;;44.72;21.95;;;5.00;99.90;;;;;;4986661;28;20110;-67
2024/03/04 02:52:29;;;;;;;44.58;22.55;;;5.00;99.90;;;;;;4996155;28;20082;-67
2024/03/04 02:54:55;;;;;;;299.60;26.25;;;4.90;99.90;;;;;;5015590;28;20080;-67
2024/03/04 02:57:20;;;;;;;421.40;23.33;;;4.90;99.90;;;;;;5003960;28;20041;-67
2024/03/04 02:59:46;;;;;;;566.20;24.35;;;4.70;99.90;;;;;;5019929;28;20049;-67
2024/03/04 03:02:12;;;;;;;520.30;23.40;;;4.70;99.90;;;;;;5002951;28;20494;-67
2024/03/04 03:04:38;;;;;;;394.67;22.98;;;4.70;99.90;;;;;;5020949;28;20443;-67
2024/03/04 03:07:04;;;;;;;326.92;19.33;;;4.70;99.90;;;;;;5020388;28;20053;-67
2024/03/04 03:09:30;;;;;;;307.30;19.52;;;4.60;99.90;;;;;;4987605;28;20079;-66
2024/03/04 03:11:55;;;;;;;252.63;17.17;;;4.60;99.90;;;;;;5020058;28;20049;-67
2024/03/04 03:14:21;;;;;;;184.57;16.85;;;4.70;99.90;;;;;;5020559;28;20072;-67
2024/03/04 03:16:49;;;;;;;110.05;15.50;;;4.80;99.90;;;;;;5003283;28;20037;-67
2024/03/04 03:19:25;;;;;;;158.18;16.08;;;4.80;99.90;;;;;;5020450;28;20051;-67
2024/03/04 03:21:52;;;;;;;328.73;19.17;;;4.90;99.90;;;;;;5022557;28;20168;-66
2024/03/04 03:24:21;;;;;;;292.73;18.90;;;4.90;99.90;;;;;;5019621;28;20041;-67
2024/03/04 03:26:49;;;;;;;178.02;17.83;;;4.80;99.90;;;;;;5021539;28;20057;-67
2024/03/04 03:29:18;;;;;;;158.90;17.38;;;4.70;99.90;;;;;;5002059;28;20128;-67
2024/03/04 03:31:47;;;;;;;136.43;14.93;;;4.60;99.90;;;;;;5021437;28;20037;-67
2024/03/04 03:34:12;;;;;;;139.05;15.23;;;4.60;99.90;;;;;;5021866;28;20058;-67
2024/03/04 03:36:42;;;;;;;128.65;15.68;;;4.60;99.90;;;;;;4985846;28;20037;-67
2024/03/04 03:39:09;;;;;;;225.45;16.13;;;4.60;99.90;;;;;;5021876;28;20511;-67
2024/03/04 03:41:39;;;;;;;102.00;12.65;;;4.70;99.90;;;;;;5001552;28;20037;-67
2024/03/04 03:44:05;;;;;;;147.45;13.57;;;4.70;99.90;;;;;;4988211;28;20053;-67
2024/03/04 03:46:31;;;;;;;93.55;13.23;;;4.60;99.90;;;;;;5000846;28;20165;-67
2024/03/04 03:48:57;;;;;;;96.10;12.43;;;4.70;99.90;;;;;;4987576;28;20053;-67
2024/03/04 03:51:23;;;;;;;81.05;13.05;;;4.70;99.90;;;;;;5020529;28;20385;-67
2024/03/04 03:53:48;;;;;;;110.05;13.40;;;4.80;99.90;;;;;;4985678;28;20053;-67
2024/03/04 03:56:14;;;;;;;76.50;12.95;;;4.70;99.90;;;;;;5003707;28;20396;-67
2024/03/04 03:58:40;;;;;;;86.97;12.93;;;4.60;99.90;;;;;;5001434;28;20549;-67
2024/03/04 04:01:06;;;;;;;79.45;13.10;;;4.50;99.90;;;;;;5002306;28;20052;-67
2024/03/04 04:03:33;;;;;;;59.72;13.20;;;4.50;99.90;;;;;;4984843;28;20053;-67
2024/03/04 04:06:03;;;;;;;64.70;13.48;;;4.50;99.90;;;;;;5021407;28;20156;-67
2024/03/04 04:08:28;;;;;;;118.60;13.90;;;4.50;99.90;;;;;;4985192;28;20053;-67
2024/03/04 04:10:54;;;;;;;102.85;13.63;;;4.50;99.90;;;;;;5019425;28;20566;-67
2024/03/04 04:13:21;;;;;;;56.35;14.35;;;4.50;99.90;;;;;;5003939;28;20104;-67
2024/03/04 04:15:47;;;;;;;140.57;15.10;;;4.60;99.90;;;;;;5019077;28;20069;-67
2024/03/04 04:18:12;;;;;;;73.55;13.88;;;4.60;99.90;;;;;;5018113;28;20214;-67
2024/03/04 04:20:47;;;;;;;116.28;14.27;;;4.50;99.90;;;;;;4994314;28;20448;-67
2024/03/04 04:23:13;;;;;;;81.25;14.18;;;4.50;99.90;;;;;;5022121;28;20506;-67
2024/03/04 04:25:39;;;;;;;57.10;13.48;;;4.50;99.90;;;;;;4982293;28;20083;-67
2024/03/04 04:28:04;;;;;;;67.15;14.13;;;4.60;99.90;;;;;;5000487;28;20061;-67
2024/03/04 04:30:31;;;;;;;96.05;13.88;;;4.50;99.90;;;;;;5003096;28;20041;-67
2024/03/04 04:32:57;;;;;;;93.97;14.98;;;4.60;99.90;;;;;;5019632;28;20045;-67
2024/03/04 04:35:24;;;;;;;73.45;14.63;;;4.60;99.90;;;;;;5003499;28;20484;-67
2024/03/04 04:37:50;;;;;;;67.32;15.07;;;4.60;99.90;;;;;;4985352;28;20045;-67
2024/03/04 04:40:19;;;;;;;59.00;14.63;;;4.50;99.90;;;;;;5000689;28;20053;-67
2024/03/04 04:42:45;;;;;;;47.03;13.45;;;4.60;99.90;;;;;;5002894;28;20135;-67
2024/03/04 04:45:11;;;;;;;51.15;14.82;;;4.60;99.90;;;;;;5020595;28;20567;-67
2024/03/04 04:47:37;;;;;;;79.88;15.27;;;4.60;99.90;;;;;;5020308;28;20463;-67
2024/03/04 04:50:03;;;;;;;64.20;14.27;;;4.70;99.90;;;;;;5001314;28;20084;-67
2024/03/04 04:52:29;;;;;;;44.53;14.70;;;4.70;99.90;;;;;;5012983;28;20468;-67
2024/03/04 04:54:55;;;;;;;45.67;14.57;;;4.70;99.90;;;;;;5001898;28;20037;-67
2024/03/04 04:57:21;;;;;;;58.85;15.15;;;4.70;99.90;;;;;;5003197;28;20497;-67
2024/03/04 04:59:47;;;;;;;66.60;16.27;;;4.80;99.90;;;;;;5019777;28;20092;-67
2024/03/04 05:02:15;;;;;;;52.95;17.05;;;4.80;99.90;;;;;;5021021;28;20073;-68
2024/03/04 05:04:44;;;;;;;39.03;17.08;;;4.80;99.90;;;;;;5022167;28;20045;-67
2024/03/04 05:07:09;;;;;;;29.88;16.35;;;4.80;99.90;;;;;;5023653;28;20803;-67
2024/03/04 05:09:35;;;;;;;25.90;16.77;;;4.80;99.90;;;;;;5006670;28;20132;-67
2024/03/04 05:12:01;;;;;;;27.38;17.08;;;4.90;99.90;;;;;;5004299;28;20137;-67
2024/03/04 05:14:27;;;;;;;29.77;16.98;;;5.00;99.90;;;;;;4990373;28;20519;-67
2024/03/04 05:16:54;;;;;;;27.05;16.67;;;5.00;99.90;;;;;;5022880;28;20081;-67
2024/03/04 05:19:22;;;;;;;31.27;17.75;;;5.10;99.90;;;;;;5024880;28;20051;-67
2024/03/04 05:21:47;;;;;;;30.42;18.42;;;5.10;99.90;;;;;;5024147;28;20155;-67
2024/03/04 05:24:13;;;;;;;30.60;18.80;;;5.10;99.90;;;;;;5023765;28;20057;-67
2024/03/04 05:26:40;;;;;;;28.02;17.65;;;5.20;99.90;;;;;;5006475;28;20045;-67
2024/03/04 05:29:05;;;;;;;32.55;19.40;;;5.30;99.90;;;;;;4988330;28;20057;-67
2024/03/04 05:31:32;;;;;;;34.55;20.25;;;5.30;99.90;;;;;;5006541;28;20037;-67
2024/03/04 05:33:58;;;;;;;33.03;20.02;;;5.40;99.90;;;;;;5020815;28;20053;-67
2024/03/04 05:36:24;;;;;;;32.40;18.95;;;5.30;99.90;;;;;;5007048;28;20127;-67
2024/03/04 05:38:49;;;;;;;37.10;20.27;;;5.40;99.90;;;;;;4988540;28;20045;-67
2024/03/04 05:41:15;;;;;;;33.88;19.35;;;5.50;99.90;;;;;;5024004;28;20519;-67
2024/03/04 05:43:41;;;;;;;34.35;18.60;;;5.60;99.90;;;;;;4972023;28;20037;-67
2024/03/04 05:46:07;;;;;;;40.17;20.90;;;5.50;99.90;;;;;;5022890;28;20080;-67
2024/03/04 05:48:33;;;;;;;35.88;21.70;;;5.60;99.90;;;;;;5024019;28;20072;-67
2024/03/04 05:50:59;;;;;;;38.33;21.77;;;5.60;99.90;;;;;;5004627;28;20480;-67
2024/03/04 05:53:25;;;;;;;37.92;21.05;;;5.60;99.90;;;;;;5022452;28;20045;-67
2024/03/04 05:55:51;;;;;;;44.15;21.92;;;5.70;99.90;;;;;;5021978;28;20050;-67
2024/03/04 05:58:17;;;;;;;40.40;21.50;;;5.70;99.90;;;;;;5006632;28;20083;-67
2024/03/04 06:00:43;;;;;;;37.85;21.38;;;5.70;99.90;;;;;;5022879;28;20484;-67
2024/03/04 06:03:09;;;;;;;40.60;21.02;;;5.70;99.90;;;;;;4989445;28;20084;-67
2024/03/04 06:05:35;;;;;;;40.03;21.33;;;5.70;99.90;;;;;;5013731;28;20084;-67
2024/03/04 06:08:01;;;;;;;40.45;22.10;;;5.80;99.90;;;;;;5021748;28;20045;-67
2024/03/04 06:10:28;;;;;;;39.30;21.10;;;5.80;99.90;;;;;;5023902;28;20053;-67
2024/03/04 06:12:54;;;;;;;42.58;22.55;;;5.90;99.90;;;;;;5021630;28;20085;-67
2024/03/04 06:15:21;;;;;;;42.08;21.25;;;5.80;99.90;;;;;;5013096;28;20081;-67
2024/03/04 06:17:46;;;;;;;41.47;22.75;;;5.90;99.90;;;;;;5002256;28;20103;-67
2024/03/04 06:20:12;;;;;;;44.05;22.40;;;5.80;99.90;;;;;;5005171;28;20504;-67
2024/03/04 06:22:39;;;;;;;43.33;22.17;;;5.90;99.90;;;;;;5023386;28;20049;-67
2024/03/04 06:25:06;;;;;;;43.58;22.05;;;5.90;99.90;;;;;;5020182;28;20544;-67
2024/03/04 06:27:33;;;;;;;42.90;22.70;;;5.90;99.90;;;;;;5003185;28;20045;-67
2024/03/04 06:30:00;;;;;;;39.80;22.42;;;6.00;99.90;;;;;;4987446;28;20049;-67
2024/03/04 06:32:26;;;;;;;42.30;22.38;;;6.00;99.90;;;;;;5005638;28;20046;-67
2024/03/04 06:34:51;;;;;;;42.90;23.17;;;6.00;99.90;;;;;;5003212;28;20060;-67
2024/03/04 06:37:18;;;;;;;47.88;22.58;;;5.90;99.90;;;;;;5021646;28;20057;-67
2024/03/04 06:39:47;;;;;;;42.17;23.30;;;5.90;99.90;;;;;;5004315;28;20053;-67
2024/03/04 06:42:13;;;;;;;41.70;22.73;;;5.90;99.90;;;;;;4987721;28;20480;-67
2024/03/04 06:44:40;;;;;;;38.95;22.08;;;5.80;99.90;;;;;;5005409;28;20057;-67
2024/03/04 06:47:06;;;;;;;39.28;22.10;;;5.90;99.90;;;;;;5001586;28;20061;-67
2024/03/04 06:49:32;;;;;;;41.88;20.90;;;5.90;99.90;;;;;;5023288;28;20056;-67
2024/03/04 06:51:57;;;;;;;44.58;22.27;;;6.00;99.90;;;;;;5002865;28;20537;-67
2024/03/04 06:54:24;;;;;;;44.88;23.52;;;5.90;99.90;;;;;;4988847;28;20053;-67
2024/03/04 06:56:50;;;;;;;39.58;20.98;;;6.00;99.90;;;;;;5002805;28;20049;-67
2024/03/04 06:59:15;;;;;;;41.58;21.10;;;6.00;99.90;;;;;;4987293;28;20063;-67
2024/03/04 07:01:41;;;;;;;39.90;22.45;;;5.90;99.90;;;;;;5004942;28;20045;-67
2024/03/04 07:04:07;;;;;;;41.78;22.27;;;5.90;99.90;;;;;;5020547;28;20080;-67
2024/03/04 07:06:33;;;;;;;40.97;21.15;;;6.00;99.90;;;;;;5005415;28;20045;-67
2024/03/04 07:08:59;;;;;;;35.28;21.45;;;6.00;99.90;;;;;;5019307;28;20152;-67
2024/03/04 07:11:25;;;;;;;42.65;22.42;;;5.90;99.90;;;;;;5022874;28;20144;-67
2024/03/04 07:13:51;;;;;;;43.45;22.85;;;5.90;99.90;;;;;;4987141;28;20507;-67
2024/03/04 07:16:16;;;;;;;47.80;22.45;;;5.80;99.90;;;;;;5022311;28;20057;-67
2024/03/04 07:18:42;;;;;;;40.40;22.67;;;5.80;99.90;;;;;;5004368;28;20081;-67
2024/03/04 07:21:12;;;;;;;36.80;20.35;;;5.70;99.90;;;;;;5018470;28;20041;-67
2024/03/04 07:23:39;;;;;;;38.53;20.08;;;5.60;99.90;;;;;;5022862;28;20087;-67
2024/03/04 07:26:06;;;;;;;34.70;20.55;;;5.60;99.90;;;;;;5020232;28;20046;-67
2024/03/04 07:28:35;;;;;;;44.63;24.20;;;5.60;99.90;;;;;;5022714;28;20883;-67
2024/03/04 07:31:00;;;;;;;37.25;21.70;;;5.50;99.90;;;;;;4999160;28;20165;-67
2024/03/04 07:33:26;;;;;;;32.17;20.20;;;5.40;99.90;;;;;;5004725;28;20137;-67
2024/03/04 07:35:52;;;;;;;46.08;23.63;;;5.40;99.90;;;;;;5003664;28;20422;-67
2024/03/04 07:38:19;;;;;;;36.60;20.92;;;5.50;99.90;;;;;;5002808;28;20351;-67
2024/03/04 07:40:45;;;;;;;33.88;20.02;;;5.50;99.90;;;;;;5021601;28;20045;-67
2024/03/04 07:43:11;;;;;;;32.65;20.15;;;5.50;99.90;;;;;;5001964;28;20554;-67
2024/03/04 07:45:36;;;;;;;39.35;20.60;;;5.50;99.90;;;;;;4987996;28;20057;-67
2024/03/04 07:48:02;;;;;;;33.42;20.90;;;5.60;99.90;;;;;;4967168;28;20061;-67
2024/03/04 07:50:28;;;;;;;38.95;19.35;;;5.70;99.90;;;;;;4983100;28;20089;-67
2024/03/04 07:52:54;;;;;;;30.95;18.70;;;5.60;99.90;;;;;;4979937;28;20137;-67
2024/03/04 07:55:19;;;;;;;32.95;19.98;;;5.70;99.90;;;;;;4979254;28;20120;-67
2024/03/04 07:57:45;;;;;;;28.90;18.35;;;5.70;99.90;;;;;;4981292;28;20050;-67
2024/03/04 08:00:13;;;;;;;35.50;20.25;;;5.70;99.90;;;;;;4978454;28;20133;-67
2024/03/04 08:02:42;;;;;;;32.42;19.08;;;5.80;99.90;;;;;;4980783;28;20046;-67
2024/03/04 08:05:09;;;;;;;38.43;19.57;;;5.70;99.90;;;;;;4973184;28;20116;-67
2024/03/04 08:07:37;;;;;;;34.05;21.63;;;5.70;99.90;;;;;;4979694;28;20046;-67
2024/03/04 08:10:06;;;;;;;40.35;23.48;;;5.80;99.90;;;;;;4976336;28;20045;-67
2024/03/04 08:12:33;;;;;;;37.58;22.80;;;5.80;99.90;;;;;;4979553;28;20532;-67
2024/03/04 08:14:59;;;;;;;38.55;22.30;;;5.90;99.90;;;;;;4974661;28;20621;-67
2024/03/04 08:17:26;;;;;;;39.40;22.30;;;6.00;99.90;;;;;;4976389;28;20038;-67
2024/03/04 08:19:54;;;;;;;43.35;21.05;;;6.00;99.90;;;;;;4982088;28;20058;-67
2024/03/04 08:22:20;;;;;;;41.67;22.23;;;6.10;99.90;;;;;;4978798;28;20621;-67
2024/03/04 08:24:46;;;;;;;35.38;19.15;;;6.10;99.90;;;;;;4964849;28;20037;-67
2024/03/04 08:27:12;;;;;;;35.17;21.23;;;6.10;99.90;;;;;;4970791;28;20042;-67
2024/03/04 08:29:38;;;;;;;37.70;21.88;;;6.20;99.90;;;;;;4944409;28;20138;-67
2024/03/04 08:32:04;;;;;;;45.85;22.90;;;6.20;99.90;;;;;;4972465;28;20133;-67
2024/03/04 08:34:33;;;;;;;37.80;20.88;;;6.30;99.90;;;;;;4979787;28;20112;-67
2024/03/04 08:36:59;;;;;;;45.97;22.77;;;6.40;99.90;;;;;;4978638;28;21167;-67
2024/03/04 08:39:25;;;;;;;46.08;23.60;;;6.40;99.90;;;;;;4960586;28;20547;-67
2024/03/04 08:41:52;;;;;;;44.25;24.13;;;6.50;99.90;;;;;;4985441;28;20046;-67
2024/03/04 08:44:18;;;;;;;49.60;25.98;;;6.60;99.90;;;;;;4983317;28;20506;-67
2024/03/04 08:46:44;;;;;;;48.60;24.90;;;6.60;99.90;;;;;;4990036;28;20057;-67
2024/03/04 08:49:10;;;;;;;42.47;23.20;;;6.70;99.90;;;;;;5022435;28;20507;-67
2024/03/04 08:51:36;;;;;;;49.70;24.00;;;6.70;99.90;;;;;;5023183;28;20084;-67
2024/03/04 08:54:02;;;;;;;39.35;22.20;;;6.80;99.90;;;;;;5023776;28;20060;-67
2024/03/04 08:56:28;;;;;;;38.17;22.13;;;6.80;99.90;;;;;;4994249;28;20577;-67
2024/03/04 08:58:59;;;;;;;44.25;23.77;;;6.80;99.90;;;;;;5004419;28;20053;-67
2024/03/04 09:01:26;;;;;;;51.17;27.52;;;6.80;99.90;;;;;;5005719;28;20053;-67
2024/03/04 09:03:52;;;;;;;53.67;25.58;;;6.90;99.90;;;;;;5025067;28;20492;-67
2024/03/04 09:06:19;;;;;;;47.92;25.67;;;6.90;99.90;;;;;;5022111;28;20053;-67
2024/03/04 09:08:48;;;;;;;58.03;26.10;;;6.90;99.90;;;;;;5005343;28;20045;-67
2024/03/04 09:11:14;;;;;;;52.80;26.63;;;7.00;99.90;;;;;;4996539;28;20049;-67
2024/03/04 09:13:40;;;;;;;55.92;25.63;;;6.90;99.90;;;;;;5004745;28;20053;-67
2024/03/04 09:16:06;;;;;;;51.80;25.70;;;7.10;99.90;;;;;;5022898;28;20049;-67
2024/03/04 09:18:35;;;;;;;76.43;29.85;;;7.20;99.90;;;;;;5005091;28;20041;-67
2024/03/04 09:21:02;;;;;;;81.68;33.53;;;7.20;99.90;;;;;;5004665;28;20089;-67
2024/03/04 09:23:28;;;;;;;77.00;29.50;;;7.20;99.90;;;;;;5005313;28;20060;-67
2024/03/04 09:25:54;;;;;;;128.07;39.53;;;7.30;99.90;;;;;;5023223;28;20060;-67
2024/03/04 09:28:20;;;;;;;117.72;38.45;;;7.40;99.90;;;;;;5005212;28;20037;-67
2024/03/04 09:30:46;;;;;;;73.72;29.45;;;7.50;99.90;;;;;;5002957;28;20139;-67
2024/03/04 09:33:12;;;;;;;106.82;36.33;;;7.50;99.90;;;;;;5006693;28;20488;-67
2024/03/04 09:35:38;;;;;;;107.07;34.20;;;7.60;99.90;;;;;;5020310;28;20050;-67
2024/03/04 09:38:06;;;;;;;91.60;28.38;;;7.70;99.90;;;;;;5005873;28;20486;-67
2024/03/04 09:40:34;;;;;;;81.45;30.75;;;7.70;99.90;;;;;;5017836;28;20119;-67
2024/03/04 09:43:01;;;;;;;134.25;39.88;;;7.90;99.90;;;;;;5021346;28;20049;-67
2024/03/04 09:45:28;;;;;;;114.13;38.13;;;8.00;99.90;;;;;;5020694;28;20045;-67
2024/03/04 09:47:58;;;;;;;114.93;39.80;;;8.10;99.90;;;;;;4987024;28;20097;-67
2024/03/04 09:50:25;;;;;;;160.35;47.58;;;8.20;99.90;;;;;;4975219;28;20611;-67
2024/03/04 09:52:58;;;;;;;104.53;35.63;;;8.40;99.90;;;;;;4980091;28;20042;-67
2024/03/04 09:55:24;;;;;;;121.95;36.70;;;8.40;99.90;;;;;;4980273;28;20049;-67
2024/03/04 09:57:50;;;;;;;128.80;40.75;;;8.30;99.90;;;;;;4979330;28;20113;-67
2024/03/04 10:00:17;;;;;;;172.15;52.30;;;8.20;99.90;;;;;;4980249;28;20289;-67
2024/03/04 10:02:47;;;;;;;125.60;40.63;;;8.30;99.90;;;;;;4981859;28;20046;-66
2024/03/04 10:05:14;;;;;;;137.75;42.33;;;8.50;99.90;;;;;;4976464;28;20102;-67
2024/03/04 10:07:40;;;;;;;145.73;44.90;;;8.40;99.90;;;;;;4983603;28;20388;-67
2024/03/04 10:10:08;;;;;;;119.18;36.58;;;8.30;99.90;;;;;;4981103;28;20046;-67
2024/03/04 10:12:35;;;;;;;135.57;43.58;;;8.30;99.90;;;;;;4983164;28;20046;-67
2024/03/04 10:15:03;;;;;;;160.25;45.55;;;8.30;99.90;;;;;;4979896;28;20497;-66
2024/03/04 10:17:29;;;;;;;135.18;39.80;;;8.30;99.90;;;;;;4982934;28;20132;-67
2024/03/04 10:20:05;;;;;;;112.60;39.08;;;8.20;99.90;;;;;;4979138;28;20046;-67
2024/03/04 10:22:35;;;;;;;123.07;42.25;;;8.20;99.90;;;;;;4978873;28;20038;-67
2024/03/04 10:25:15;;;;;;;141.50;44.20;;;8.30;99.90;;;;;;4980635;28;20458;-67
2024/03/04 10:27:50;;;;;;;115.50;43.37;;;8.20;99.90;;;;;;4975713;28;20055;-67
2024/03/04 10:30:21;;;;;;;119.15;39.38;;;8.20;99.90;;;;;;4980761;28;20056;-67
2024/03/04 10:32:49;;;;;;;110.53;42.55;;;8.20;99.90;;;;;;4980235;28;20074;-67
2024/03/04 10:35:20;;;;;;;97.65;40.70;;;8.10;99.90;;;;;;4965934;28;20058;-68
2024/03/04 10:37:48;;;;;;;99.60;39.22;;;8.10;99.90;;;;;;4979253;28;20051;-67
2024/03/04 10:40:18;;;;;;;95.05;39.38;;;8.10;99.90;;;;;;4972785;28;20054;-67
2024/03/04 10:42:45;;;;;;;88.93;36.15;;;8.30;99.90;;;;;;4980478;28;20082;-67
2024/03/04 10:45:13;;;;;;;87.85;35.42;;;8.20;99.90;;;;;;4979624;28;20046;-67
2024/03/04 10:47:41;;;;;;;89.50;37.20;;;8.30;99.90;;;;;;4980164;28;20504;-67
2024/03/04 10:50:08;;;;;;;79.82;34.67;;;8.30;99.90;;;;;;4980620;28;20489;-67
2024/03/04 10:52:34;;;;;;;90.72;37.70;;;8.40;99.90;;;;;;4979204;28;20054;-67
2024/03/04 10:55:02;;;;;;;81.50;34.65;;;8.50;99.90;;;;;;4980002;28;20046;-67
2024/03/04 10:57:29;;;;;;;75.03;32.97;;;8.50;99.90;;;;;;4976968;28;20424;-67
2024/03/04 11:00:01;;;;;;;80.60;36.03;;;8.60;99.90;;;;;;4980668;28;20058;-67
2024/03/04 11:02:38;;;;;;;75.80;34.17;;;8.70;99.90;;;;;;4972547;28;20149;-67
2024/03/04 11:05:08;;;;;;;74.90;33.05;;;8.70;99.90;;;;;;4977813;28;20497;-67
2024/03/04 11:07:39;;;;;;;64.55;31.85;;;8.80;99.90;;;;;;4963217;28;20093;-67
2024/03/04 11:10:29;;;;;;;71.43;34.53;;;8.90;99.90;;;;;;4979298;28;20421;-67
2024/03/04 11:13:16;;;;;;;67.88;31.73;;;8.90;99.90;;;;;;4973065;28;20516;-67
2024/03/04 11:15:52;;;;;;;73.65;33.15;;;8.80;99.90;;;;;;4960613;28;20481;-67
2024/03/04 11:18:39;;;;;;;74.05;35.20;;;8.90;99.90;;;;;;4974770;28;20460;-67
2024/03/04 11:21:05;;;;;;;73.72;33.42;;;8.90;99.90;;;;;;4978682;28;20042;-67
2024/03/04 11:23:33;;;;;;;71.45;34.88;;;8.90;99.90;;;;;;4976685;28;20068;-67
2024/03/04 11:26:00;;;;;;;72.68;35.70;;;8.90;99.90;;;;;;4977974;28;21126;-67
2024/03/04 11:28:26;;;;;;;77.60;36.88;;;8.90;99.90;;;;;;4977960;28;20050;-67
2024/03/04 11:30:51;;;;;;;69.22;34.22;;;9.00;99.90;;;;;;4972844;28;20477;-67
2024/03/04 11:33:43;;;;;;;80.25;33.67;;;9.00;99.90;;;;;;4980060;28;20046;-67
2024/03/04 11:36:10;;;;;;;73.53;32.65;;;9.00;99.90;;;;;;4977648;28;20133;-66
2024/03/04 11:38:45;;;;;;;77.68;31.48;;;9.00;99.90;;;;;;4964778;28;20081;-67
2024/03/04 11:41:32;;;;;;;76.15;34.92;;;9.00;99.90;;;;;;4973970;28;20069;-67
2024/03/04 11:44:00;;;;;;;70.47;32.70;;;9.00;99.90;;;;;;4958826;28;20053;-66
2024/03/04 11:46:25;;;;;;;63.47;30.85;;;9.10;99.90;;;;;;4980928;28;20436;-66
2024/03/04 11:48:51;;;;;;;64.30;30.75;;;9.20;99.90;;;;;;5019241;28;20061;-67
2024/03/04 11:51:43;;;;;;;68.38;30.75;;;9.20;99.90;;;;;;4986703;28;20271;-66
2024/03/04 11:54:09;;;;;;;91.05;37.72;;;9.30;99.90;;;;;;4996581;28;20393;-66
2024/03/04 11:56:35;;;;;;;135.10;50.83;;;9.40;99.90;;;;;;5020491;28;20096;-66
2024/03/04 11:59:01;;;;;;;177.98;65.97;;;9.40;99.90;;;;;;5002638;28;20477;-66
2024/03/04 12:01:28;;;;;;;152.20;59.00;;;9.30;99.90;;;;;;4998733;28;20495;-66
2024/03/04 12:03:54;;;;;;;154.77;56.53;;;9.40;99.90;;;;;;5000409;28;20049;-66
2024/03/04 12:06:20;;;;;;;168.73;65.90;;;9.50;99.90;;;;;;4998937;28;20130;-67
2024/03/04 12:08:46;;;;;;;147.23;60.28;;;9.60;99.90;;;;;;5000768;28;20049;-66
2024/03/04 12:11:15;;;;;;;135.35;54.25;;;9.60;99.90;;;;;;5018674;28;20389;-66
2024/03/04 12:13:41;;;;;;;135.77;54.05;;;9.70;99.90;;;;;;5001237;28;20053;-66
2024/03/04 12:16:06;;;;;;;114.00;47.45;;;9.70;99.90;;;;;;5018516;28;20049;-66
2024/03/04 12:18:36;;;;;;;107.93;45.08;;;9.70;99.90;;;;;;5013477;28;20247;-66
2024/03/04 12:21:05;;;;;;;103.15;44.65;;;9.70;99.90;;;;;;4985168;28;20045;-66
2024/03/04 12:23:30;;;;;;;106.90;43.55;;;9.70;99.90;;;;;;4997671;28;20698;-66
2024/03/04 12:26:12;;;;;;;112.47;45.80;;;9.70;99.90;;;;;;5020791;28;20037;-66
2024/03/04 12:28:41;;;;;;;107.68;43.95;;;9.60;99.90;;;;;;4996739;28;20049;-66
2024/03/04 12:31:11;;;;;;;105.03;41.47;;;9.60;99.90;;;;;;5021275;28;20049;-66
2024/03/04 12:33:37;;;;;;;94.72;43.60;;;9.60;99.90;;;;;;4998662;28;20666;-66
2024/03/04 12:36:06;;;;;;;101.95;44.85;;;9.60;99.90;;;;;;5017752;28;20171;-66